KABR/ABR METAR and TAF weather

Enter ICAO airport designator
Station Type Date Time Source
KABR METAR 2020/01/19 02:53 UTC NOAA

KABR 190253Z AUTO 32020KT 10SM CLR M19/M25 A3039 RMK AO2 PK WND 32029/0233 SLP329 T11941250 51021 $


Station Type Date Time Source
KABR Decoded METAR 2020/01/19 02:53 UTC NOAA

ABERDEEN REGIONAL AIRPORT, SD, United States (KABR) 45-27N 098-25W 400M
Jan 18, 2020 - 09:53 PM EST / 2020.01.19 0253 UTC
Wind: from the NW (320 degrees) at 23 MPH (20 KT):0
Visibility: 10 mile(s):0
Sky conditions: clear
Temperature: -2.9 F (-19.4 C)
Windchill: -27 F (-33 C):2
Dew Point: -13.0 F (-25.0 C)
Relative Humidity: 61%
Pressure (altimeter): 30.39 in. Hg (1029 hPa)
Pressure tendency: 0.06 inches (2.1 hPa) higher than three hours ago
ob: KABR 190253Z AUTO 32020KT 10SM CLR M19/M25 A3039 RMK AO2 PK WND 32029/0233 SLP329 T11941250 51021
cycle: 3

Station Type Date Time Source
KABR TAF 2020/01/18 22:51 UTC NOAA

TAF
AMD KABR 182148Z 1822/1918 31018G29KT P6SM SCT015
TEMPO 1822/1823 5SM BR BLSN BKN020
FM190000 31017G24KT P6SM FEW250
FM190900 31012KT P6SM FEW040
FM191400 29008KT P6SM FEW080

Example: see airport list